Decoded Metar for KPTB (PETERSBURG in VA, USA) (IATA:PTB) | Meteo·Mobile Aviation Weather
aviador You're here:

KPTB Decoded Metar

PETERSBURG in VA, USA
Report Time2018-09-22 10:59:00
UTC Time2018-09-22 11:07:42
Flight Rules mvfr MVFR
WindCalm
Visibility8047 m
Phenomena:Mist
Clouds:N/A
Expected CloudBase > 400 ft AGL from Temp-Dew spread
CeilingNone
Temp19°C (ISA +4)
Dew Point18°C (94% RH)
QNH1019 hPa
Density Alt781 ft
Elevation194 ft
Report Wrong Elevation
Raw Report
METAR KPTB 221059Z AUTO 00000KT 5SM BR CLR 19/18 A3008 RMK AO2=

Extra information for KPTB:More info

Metar Taf Metar & Taf Last 4 Metars F.Rules Stats Wind Profile Meteogram Temp Stats Airport Information Weather charts Add Link Nearby VenuesMetar ALERT Operation Metar Decoded Social comments

AIRNAV info for KPTB